createdAt,value
2019-02-25T00:01:37.812Z,68.90
2019-02-25T00:04:08.377Z,73.50
2019-02-25T00:06:38.931Z,76.70
2019-02-25T00:09:09.530Z,76.20
2019-02-25T00:11:40.445Z,75.67
2019-02-25T00:14:10.809Z,74.17
2019-02-25T00:16:42.027Z,73.77
2019-02-25T00:19:12.357Z,73.53
2019-02-25T00:21:42.745Z,72.10
2019-02-25T00:24:13.058Z,76.10
2019-02-25T00:26:43.482Z,67.07
2019-02-25T00:29:13.882Z,70.52
2019-02-25T00:31:44.337Z,66.57
2019-02-25T00:34:14.697Z,66.87
2019-02-25T00:36:45.449Z,67.27
2019-02-25T00:39:15.945Z,70.10
2019-02-25T00:41:46.439Z,72.53
2019-02-25T00:44:16.864Z,65.75
2019-02-25T00:46:47.546Z,70.57
2019-02-25T00:49:18.483Z,72.90
2019-02-25T00:51:49.329Z,69.00
2019-02-25T00:54:19.784Z,65.78
2019-02-25T00:56:51.201Z,67.90
2019-02-25T00:59:21.621Z,63.75
2019-02-25T01:01:52.082Z,68.83
2019-02-25T01:04:22.585Z,65.53
2019-02-25T01:06:53.095Z,70.00
2019-02-25T01:09:23.574Z,68.30
2019-02-25T01:11:54.061Z,67.20
2019-02-25T01:14:24.485Z,65.43
2019-02-25T01:16:54.887Z,70.57
2019-02-25T01:19:25.320Z,66.77
2019-02-25T01:21:56.093Z,63.53
2019-02-25T01:24:26.418Z,68.87
2019-02-25T01:26:57.270Z,64.53
2019-02-25T01:29:27.606Z,68.43
2019-02-25T01:31:57.942Z,69.60
2019-02-25T01:34:28.445Z,69.40
2019-02-25T01:36:58.949Z,68.53
2019-02-25T01:39:29.384Z,70.50
2019-02-25T01:41:59.956Z,65.27
2019-02-25T01:44:30.507Z,68.80
2019-02-25T01:47:00.962Z,73.63
2019-02-25T01:49:31.360Z,79.20
2019-02-25T01:52:01.800Z,76.53
2019-02-25T01:54:32.345Z,75.00
2019-02-25T01:57:02.899Z,74.57
2019-02-25T01:59:33.493Z,83.83
2019-02-25T02:02:05.610Z,83.37
2019-02-25T02:04:36.135Z,85.30
2019-02-25T02:07:06.543Z,84.00
2019-02-25T02:09:37.126Z,82.40
2019-02-25T02:12:07.515Z,90.90
2019-02-25T02:14:39.084Z,79.27
2019-02-25T02:17:09.652Z,81.92
2019-02-25T02:19:41.009Z,79.43
2019-02-25T02:22:11.410Z,78.77
2019-02-25T02:24:41.793Z,77.97
2019-02-25T02:27:12.248Z,79.58
2019-02-25T02:29:42.717Z,74.40
2019-02-25T02:32:13.056Z,69.57
2019-02-25T02:34:43.496Z,68.63
2019-02-25T02:37:13.909Z,68.75
2019-02-25T02:39:44.384Z,68.13
2019-02-25T02:42:22.074Z,72.67
2019-02-25T02:44:55.394Z,70.57
2019-02-25T02:47:44.454Z,71.03
2019-02-25T02:50:18.378Z,67.70
2019-02-25T02:52:48.800Z,63.67
2019-02-25T02:55:19.391Z,66.15
2019-02-25T02:57:49.733Z,69.27
2019-02-25T03:00:21.074Z,64.27
2019-02-25T03:02:51.474Z,66.17
2019-02-25T03:05:21.895Z,62.70
2019-02-25T03:07:52.408Z,64.53
2019-02-25T03:10:23.039Z,62.78
2019-02-25T03:12:53.373Z,60.33
2019-02-25T03:15:23.842Z,57.55
2019-02-25T03:17:54.207Z,60.50
2019-02-25T03:20:24.612Z,60.17
2019-02-25T03:22:55.097Z,60.67
2019-02-25T03:25:25.432Z,58.60
2019-02-25T03:27:55.879Z,60.63
2019-02-25T03:30:26.344Z,61.50
2019-02-25T03:32:56.825Z,59.63
2019-02-25T03:35:27.251Z,59.53
2019-02-25T03:37:57.675Z,60.20
2019-02-25T03:40:28.121Z,57.07
2019-02-25T03:42:58.608Z,57.10
2019-02-25T03:45:29.614Z,57.43
2019-02-25T03:48:00.073Z,60.73
2019-02-25T03:50:30.590Z,60.07
2019-02-25T03:53:01.100Z,56.03
2019-02-25T03:55:31.587Z,57.23
2019-02-25T03:58:01.964Z,59.97
2019-02-25T04:00:32.372Z,59.60
2019-02-25T04:03:02.806Z,57.20
2019-02-25T04:05:33.433Z,55.80
2019-02-25T04:08:03.981Z,55.43
2019-02-25T04:10:34.429Z,62.17
2019-02-25T04:13:05.651Z,60.60
2019-02-25T04:15:39.679Z,57.70
2019-02-25T04:18:10.125Z,62.60
2019-02-25T04:20:40.533Z,59.70
2019-02-25T04:23:10.992Z,57.23
2019-02-25T04:25:41.396Z,58.13
2019-02-25T04:28:11.857Z,57.13
2019-02-25T04:30:42.318Z,57.77
2019-02-25T04:33:12.803Z,52.85
2019-02-25T04:35:44.368Z,51.13
2019-02-25T04:38:14.852Z,58.03
2019-02-25T04:40:45.270Z,55.90
2019-02-25T04:43:15.807Z,51.30
2019-02-25T04:45:46.225Z,55.13
2019-02-25T04:48:16.734Z,50.10
2019-02-25T04:50:47.276Z,54.23
2019-02-25T04:53:17.764Z,48.77
2019-02-25T04:55:48.184Z,53.13
2019-02-25T04:58:18.675Z,54.07
2019-02-25T05:00:49.068Z,56.03
2019-02-25T05:03:19.518Z,49.90
2019-02-25T05:05:49.947Z,50.20
2019-02-25T05:08:20.332Z,54.83
2019-02-25T05:10:50.780Z,50.23
2019-02-25T05:13:21.358Z,49.73
2019-02-25T05:15:51.747Z,50.57
2019-02-25T05:18:22.155Z,47.80
2019-02-25T05:20:52.570Z,47.03
2019-02-25T05:23:24.015Z,48.27
2019-02-25T05:25:54.443Z,49.20
2019-02-25T05:28:24.869Z,46.93
2019-02-25T05:30:55.352Z,47.43
2019-02-25T05:33:25.732Z,41.05
2019-02-25T05:35:56.139Z,45.50
2019-02-25T05:38:26.676Z,42.70
2019-02-25T05:40:57.296Z,39.00
2019-02-25T05:43:28.310Z,39.60
2019-02-25T05:45:58.771Z,41.87
2019-02-25T05:48:29.274Z,38.80
2019-02-25T05:50:59.735Z,39.30
2019-02-25T05:53:30.134Z,44.60
2019-02-25T05:56:00.527Z,42.60
2019-02-25T05:58:31.019Z,39.53
2019-02-25T06:01:01.446Z,38.93
2019-02-25T06:03:32.045Z,45.80
2019-02-25T06:06:02.463Z,44.63
2019-02-25T06:08:32.851Z,46.70
2019-02-25T06:11:03.310Z,46.17
2019-02-25T06:13:33.770Z,43.63
2019-02-25T06:16:04.144Z,43.70
2019-02-25T06:18:36.293Z,42.40
2019-02-25T06:21:06.686Z,44.67
2019-02-25T06:23:37.214Z,48.70
2019-02-25T06:26:07.664Z,48.38
2019-02-25T06:28:38.211Z,52.67
2019-02-25T06:31:08.585Z,57.57
2019-02-25T06:33:39.052Z,53.83
2019-02-25T06:36:09.477Z,56.37
2019-02-25T06:38:39.893Z,51.00
2019-02-25T06:41:10.592Z,54.88
2019-02-25T06:43:41.042Z,52.30
2019-02-25T06:46:11.452Z,57.50
2019-02-25T06:48:42.174Z,55.17
2019-02-25T06:51:12.675Z,56.08
2019-02-25T06:53:43.205Z,56.27
2019-02-25T06:56:13.533Z,54.75
2019-02-25T06:58:43.923Z,48.63
2019-02-25T07:01:14.415Z,48.80
2019-02-25T07:03:46.652Z,45.67
2019-02-25T07:06:21.434Z,44.53
2019-02-25T07:09:13.635Z,43.10
2019-02-25T07:12:09.318Z,41.83
2019-02-25T07:14:44.579Z,44.33
2019-02-25T07:17:34.250Z,37.60
2019-02-25T07:20:17.804Z,40.05
2019-02-25T07:23:10.224Z,37.27
2019-02-25T07:25:59.588Z,37.23
2019-02-25T07:28:54.760Z,30.83
2019-02-25T07:31:43.501Z,28.43
2019-02-25T07:34:20.188Z,34.65
2019-02-25T07:37:08.159Z,30.03
2019-02-25T07:39:50.646Z,32.47
2019-02-25T07:42:35.662Z,33.83
2019-02-25T07:45:15.012Z,33.87
2019-02-25T07:47:53.986Z,30.90
2019-02-25T07:50:55.335Z,30.47
2019-02-25T07:53:48.643Z,34.73
2019-02-25T07:56:33.289Z,30.17
2019-02-25T07:59:12.655Z,27.85
2019-02-25T08:01:57.488Z,31.93
2019-02-25T08:04:39.004Z,30.97
2019-02-25T08:07:28.332Z,26.00
2019-02-25T08:10:24.081Z,31.93
2019-02-25T08:13:04.765Z,29.70
2019-02-25T08:15:43.614Z,31.77
2019-02-25T08:18:22.199Z,32.87
2019-02-25T08:21:00.092Z,35.00
2019-02-25T08:23:41.453Z,31.00
2019-02-25T08:26:30.741Z,34.08
2019-02-25T08:29:18.602Z,28.27
2019-02-25T08:32:23.978Z,33.10
2019-02-25T08:35:19.216Z,31.87
2019-02-25T08:38:24.823Z,35.23
2019-02-25T08:41:26.806Z,31.70
2019-02-25T08:44:08.626Z,38.47
2019-02-25T08:47:03.134Z,35.73
2019-02-25T08:49:40.477Z,34.13
2019-02-25T08:52:10.987Z,36.30
2019-02-25T08:54:41.456Z,36.40
2019-02-25T08:57:12.055Z,34.73
2019-02-25T08:59:42.924Z,34.78
2019-02-25T09:02:13.564Z,38.40
2019-02-25T09:04:44.076Z,37.57
2019-02-25T09:07:14.474Z,38.20
2019-02-25T09:09:45.050Z,34.73
2019-02-25T09:12:15.496Z,37.93
2019-02-25T09:14:46.017Z,33.87
2019-02-25T09:17:16.498Z,40.40
2019-02-25T09:19:47.033Z,36.17
2019-02-25T09:22:17.454Z,38.83
2019-02-25T09:24:47.958Z,39.90
2019-02-25T09:27:18.661Z,37.65
2019-02-25T09:29:49.110Z,38.77
2019-02-25T09:32:19.636Z,34.98
2019-02-25T09:34:50.119Z,40.40
2019-02-25T09:37:20.591Z,50.12
2019-02-25T09:39:52.020Z,37.03
2019-02-25T09:42:22.802Z,42.15
2019-02-25T09:44:53.232Z,40.23
2019-02-25T09:47:23.741Z,35.47
2019-02-25T09:49:54.273Z,40.83
2019-02-25T09:52:24.759Z,37.50
2019-02-25T09:54:55.365Z,39.57
2019-02-25T09:57:25.833Z,38.43
2019-02-25T09:59:56.429Z,43.23
2019-02-25T10:02:27.116Z,38.03
2019-02-25T10:04:57.600Z,39.87
2019-02-25T10:07:28.014Z,42.03
2019-02-25T10:09:58.885Z,34.77
2019-02-25T10:12:29.357Z,36.93
2019-02-25T10:14:59.859Z,38.43
2019-02-25T10:17:30.330Z,34.60
2019-02-25T10:20:00.872Z,39.85
2019-02-25T10:22:32.848Z,39.50
2019-02-25T10:25:05.126Z,39.53
2019-02-25T10:27:35.630Z,34.70
2019-02-25T10:30:08.874Z,35.30
2019-02-25T10:32:39.313Z,35.90
2019-02-25T10:35:11.119Z,41.47
2019-02-25T10:37:43.826Z,33.80
2019-02-25T10:40:15.547Z,39.53
2019-02-25T10:42:46.736Z,37.83
2019-02-25T10:45:17.842Z,37.93
2019-02-25T10:47:49.464Z,33.60
2019-02-25T10:50:21.055Z,36.05
2019-02-25T10:52:51.703Z,37.73
2019-02-25T10:55:34.129Z,40.10
2019-02-25T10:58:06.185Z,36.98
2019-02-25T11:00:39.442Z,36.03
2019-02-25T11:03:10.722Z,38.70
2019-02-25T11:05:42.792Z,35.33
2019-02-25T11:08:15.091Z,33.92
2019-02-25T11:10:55.747Z,34.63
2019-02-25T11:13:27.625Z,35.30
2019-02-25T11:15:58.302Z,33.87
2019-02-25T11:18:28.929Z,34.70
2019-02-25T11:21:01.182Z,35.80
2019-02-25T11:23:31.484Z,34.53
2019-02-25T11:26:02.265Z,33.17
2019-02-25T11:28:35.639Z,31.93
2019-02-25T11:31:05.688Z,35.98
2019-02-25T11:33:36.078Z,32.93
2019-02-25T11:36:06.599Z,41.17
2019-02-25T11:38:37.464Z,33.57
2019-02-25T11:41:09.484Z,32.43
2019-02-25T11:43:40.082Z,34.60
2019-02-25T11:46:10.829Z,34.17
2019-02-25T11:48:41.318Z,31.57
2019-02-25T11:51:11.744Z,33.25
2019-02-25T11:53:42.240Z,34.43
2019-02-25T11:56:12.783Z,34.47
2019-02-25T11:58:43.273Z,37.80
2019-02-25T12:01:13.889Z,32.70
2019-02-25T12:03:44.460Z,30.90
2019-02-25T12:06:14.958Z,36.55
2019-02-25T12:08:45.549Z,31.40
2019-02-25T12:11:17.127Z,31.42
2019-02-25T12:13:49.594Z,28.50
2019-02-25T12:16:21.736Z,30.90
2019-02-25T12:18:52.208Z,31.57
2019-02-25T12:21:22.770Z,32.93
2019-02-25T12:23:53.306Z,25.87
2019-02-25T12:26:23.903Z,27.80
2019-02-25T12:28:54.463Z,29.97
2019-02-25T12:31:25.109Z,30.10
2019-02-25T12:33:55.465Z,24.77
2019-02-25T12:36:25.917Z,34.57
2019-02-25T12:38:56.441Z,32.40
2019-02-25T12:41:27.398Z,29.10
2019-02-25T12:43:57.804Z,33.60
2019-02-25T12:46:28.254Z,34.33
2019-02-25T12:48:59.590Z,26.23
2019-02-25T12:51:30.118Z,28.40
2019-02-25T12:54:00.519Z,26.93
2019-02-25T12:56:31.252Z,34.67
2019-02-25T12:59:01.727Z,31.20
2019-02-25T13:01:32.307Z,31.73
2019-02-25T13:04:02.662Z,26.05
2019-02-25T13:06:33.132Z,28.63
2019-02-25T13:09:05.066Z,27.93
2019-02-25T13:11:37.115Z,35.40
2019-02-25T13:14:07.454Z,31.53
2019-02-25T13:16:38.227Z,33.33
2019-02-25T13:19:08.633Z,33.60
2019-02-25T13:21:39.112Z,33.60
2019-02-25T13:24:09.970Z,29.48
2019-02-25T13:26:40.394Z,34.10
2019-02-25T13:29:10.804Z,31.37
2019-02-25T13:31:41.420Z,33.43
2019-02-25T13:34:11.846Z,28.15
2019-02-25T13:36:42.402Z,24.07
2019-02-25T13:39:13.073Z,26.83
2019-02-25T13:41:43.859Z,29.67
2019-02-25T13:44:14.232Z,30.37
2019-02-25T13:46:44.680Z,33.17
2019-02-25T13:49:15.355Z,33.73
2019-02-25T13:51:45.950Z,32.43
2019-02-25T13:54:16.459Z,34.80
2019-02-25T13:56:46.929Z,35.57
2019-02-25T13:59:17.420Z,37.10
2019-02-25T14:01:47.832Z,33.73
2019-02-25T14:04:18.263Z,34.27
2019-02-25T14:06:48.992Z,33.30
2019-02-25T14:09:19.408Z,30.27
2019-02-25T14:11:50.814Z,28.30
2019-02-25T14:14:21.440Z,31.52
2019-02-25T14:16:51.963Z,37.23
2019-02-25T14:19:22.385Z,34.73
2019-02-25T14:21:52.819Z,32.80
2019-02-25T14:24:23.785Z,32.95
2019-02-25T14:26:54.630Z,32.10
2019-02-25T14:29:26.475Z,33.67
2019-02-25T14:31:57.967Z,35.50
2019-02-25T14:34:28.666Z,33.57
2019-02-25T14:36:59.852Z,36.33
2019-02-25T14:39:32.952Z,33.60
2019-02-25T14:42:04.281Z,37.15
2019-02-25T14:44:37.903Z,34.43
2019-02-25T14:47:19.822Z,33.50
2019-02-25T14:49:42.782Z,32.70
2019-02-25T14:52:12.764Z,32.30
2019-02-25T14:54:43.287Z,35.60
2019-02-25T14:57:15.590Z,35.43
2019-02-25T14:59:46.178Z,33.53
2019-02-25T15:02:16.881Z,35.43
2019-02-25T15:04:47.523Z,34.37
2019-02-25T15:07:18.166Z,35.40
2019-02-25T15:09:49.348Z,33.60
2019-02-25T15:12:20.750Z,37.48
2019-02-25T15:14:51.464Z,34.37
2019-02-25T15:17:22.806Z,35.63
2019-02-25T15:19:53.263Z,34.50
2019-02-25T15:22:28.026Z,34.03
2019-02-25T15:24:57.108Z,33.73
2019-02-25T15:27:28.371Z,34.70
2019-02-25T15:29:58.868Z,33.40
2019-02-25T15:32:29.549Z,33.07
2019-02-25T15:35:01.483Z,32.60
2019-02-25T15:37:32.034Z,36.87
2019-02-25T15:40:03.921Z,37.35
2019-02-25T15:42:37.202Z,33.90
2019-02-25T15:45:08.671Z,39.13
2019-02-25T15:47:40.014Z,32.47
2019-02-25T15:50:14.690Z,41.33
2019-02-25T15:52:45.648Z,39.70
2019-02-25T15:55:19.517Z,40.27
2019-02-25T15:57:50.410Z,34.40
2019-02-25T16:00:23.471Z,39.77
2019-02-25T16:02:55.849Z,41.00
2019-02-25T16:05:29.570Z,38.47
2019-02-25T16:08:00.613Z,44.50
2019-02-25T16:10:32.086Z,41.25
2019-02-25T16:13:08.239Z,45.53
2019-02-25T16:15:35.312Z,45.57
2019-02-25T16:18:05.785Z,47.17
2019-02-25T16:20:36.422Z,46.40
2019-02-25T16:23:09.469Z,47.47
2019-02-25T16:25:39.822Z,48.07
2019-02-25T16:28:12.572Z,49.03
2019-02-25T16:30:44.540Z,51.90
2019-02-25T16:33:15.050Z,46.87
2019-02-25T16:35:46.198Z,48.77
2019-02-25T16:38:16.842Z,49.97
2019-02-25T16:40:47.648Z,51.67
2019-02-25T16:43:18.935Z,46.33
2019-02-25T16:45:49.521Z,46.50
2019-02-25T16:48:23.636Z,47.50
2019-02-25T16:50:52.963Z,53.03
2019-02-25T16:53:23.530Z,52.57
2019-02-25T16:55:54.286Z,50.83
2019-02-25T16:58:25.466Z,52.87
2019-02-25T17:00:58.549Z,59.33
2019-02-25T17:03:31.650Z,56.03
2019-02-25T17:06:04.113Z,50.67
2019-02-25T17:08:34.555Z,52.57
2019-02-25T17:11:05.974Z,53.98
2019-02-25T17:13:37.105Z,53.42
2019-02-25T17:16:17.895Z,53.40
2019-02-25T17:18:41.089Z,54.53
2019-02-25T17:21:11.862Z,51.88
2019-02-25T17:23:42.302Z,53.23
2019-02-25T17:26:14.955Z,56.50
2019-02-25T17:28:45.391Z,52.23
2019-02-25T17:31:16.336Z,59.13
2019-02-25T17:33:49.285Z,59.73
2019-02-25T17:36:20.309Z,60.03
2019-02-25T17:38:51.974Z,57.03
2019-02-25T17:41:23.544Z,59.83
2019-02-25T17:43:54.881Z,60.70
2019-02-25T17:46:28.850Z,63.07
2019-02-25T17:48:58.963Z,60.10
2019-02-25T17:51:29.498Z,65.07
2019-02-25T17:54:00.131Z,62.73
2019-02-25T17:56:30.587Z,66.23
2019-02-25T17:59:03.782Z,66.10
2019-02-25T18:01:34.526Z,64.27
2019-02-25T18:04:07.141Z,63.17
2019-02-25T18:06:41.456Z,63.53
2019-02-25T18:09:14.262Z,61.68
2019-02-25T18:11:45.395Z,64.67
2019-02-25T18:14:17.611Z,65.77
2019-02-25T18:16:50.823Z,68.83
2019-02-25T18:19:22.616Z,69.37
2019-02-25T18:21:53.178Z,67.73
2019-02-25T18:24:26.794Z,70.03
2019-02-25T18:26:55.899Z,72.93
2019-02-25T18:29:26.402Z,67.70
2019-02-25T18:31:57.139Z,72.90
2019-02-25T18:34:28.044Z,77.33
2019-02-25T18:36:59.691Z,76.67
2019-02-25T18:39:31.621Z,81.77
2019-02-25T18:42:02.236Z,82.73
2019-02-25T18:44:32.598Z,82.63
2019-02-25T18:47:03.000Z,87.63
2019-02-25T18:49:35.016Z,85.03
2019-02-25T18:52:05.995Z,83.33
2019-02-25T18:54:36.921Z,81.10
2019-02-25T18:57:08.015Z,82.10
2019-02-25T18:59:38.477Z,88.47
2019-02-25T19:02:10.291Z,96.37
2019-02-25T19:04:41.788Z,90.37
2019-02-25T19:07:13.412Z,93.90
2019-02-25T19:09:45.241Z,93.17
2019-02-25T19:12:16.898Z,95.35
2019-02-25T19:14:51.070Z,100.17
2019-02-25T19:17:21.046Z,99.45
2019-02-25T19:19:51.720Z,102.07
2019-02-25T19:22:24.579Z,105.00
2019-02-25T19:24:55.064Z,102.43
2019-02-25T19:27:27.777Z,100.47
2019-02-25T19:30:00.705Z,96.43
2019-02-25T19:32:31.389Z,99.47
2019-02-25T19:35:04.022Z,106.30
2019-02-25T19:37:37.687Z,104.00
2019-02-25T19:40:12.135Z,103.37
2019-02-25T19:42:39.819Z,104.73
2019-02-25T19:45:10.896Z,105.40
2019-02-25T19:47:43.282Z,109.00
2019-02-25T19:50:14.846Z,108.10
2019-02-25T19:52:46.687Z,103.70
2019-02-25T19:55:18.388Z,112.42
2019-02-25T19:57:50.265Z,110.80
2019-02-25T20:00:25.724Z,110.00
2019-02-25T20:03:05.125Z,104.93
2019-02-25T20:05:29.260Z,104.73
2019-02-25T20:07:59.741Z,109.20
2019-02-25T20:10:30.747Z,110.53
2019-02-25T20:13:01.087Z,111.23
2019-02-25T20:15:31.679Z,114.50
2019-02-25T20:18:02.157Z,112.80
2019-02-25T20:20:36.435Z,113.60
2019-02-25T20:23:08.568Z,109.95
2019-02-25T20:25:44.447Z,111.63
2019-02-25T20:28:15.845Z,116.97
2019-02-25T20:30:46.896Z,108.90
2019-02-25T20:33:18.300Z,115.37
2019-02-25T20:35:53.056Z,111.93
2019-02-25T20:38:22.800Z,114.67
2019-02-25T20:40:55.359Z,115.45
2019-02-25T20:43:28.262Z,106.10
2019-02-25T20:46:02.911Z,110.13
2019-02-25T20:48:32.679Z,113.67
2019-02-25T20:51:04.762Z,109.40
2019-02-25T20:53:37.681Z,108.60
2019-02-25T20:56:07.736Z,111.57
2019-02-25T20:58:40.039Z,101.93
2019-02-25T21:01:12.110Z,105.80
2019-02-25T21:03:45.825Z,109.90
2019-02-25T21:06:16.740Z,107.53
2019-02-25T21:08:47.160Z,110.77
2019-02-25T21:11:17.656Z,113.17
2019-02-25T21:13:48.177Z,107.33
2019-02-25T21:16:18.787Z,113.55
2019-02-25T21:18:50.926Z,107.83
2019-02-25T21:21:21.287Z,110.17
2019-02-25T21:23:51.820Z,107.40
2019-02-25T21:26:25.471Z,108.00
2019-02-25T21:28:57.896Z,105.90
2019-02-25T21:31:26.671Z,107.70
2019-02-25T21:33:58.786Z,113.93
2019-02-25T21:36:29.555Z,118.63
2019-02-25T21:39:01.880Z,111.37
2019-02-25T21:41:35.017Z,105.73
2019-02-25T21:44:06.125Z,117.30
2019-02-25T21:46:36.549Z,115.57
2019-02-25T21:49:08.412Z,117.17
2019-02-25T21:51:39.952Z,111.40
2019-02-25T21:54:11.353Z,109.53
2019-02-25T21:56:41.830Z,118.80
2019-02-25T21:59:14.975Z,117.17
2019-02-25T22:01:45.582Z,118.80
2019-02-25T22:04:18.056Z,117.22
2019-02-25T22:06:51.002Z,114.27
2019-02-25T22:09:35.460Z,112.53
2019-02-25T22:11:52.552Z,108.90
2019-02-25T22:14:25.513Z,107.22
2019-02-25T22:16:56.603Z,106.90
2019-02-25T22:19:27.644Z,109.13
2019-02-25T22:22:00.236Z,110.60
2019-02-25T22:24:32.079Z,106.23
2019-02-25T22:27:02.465Z,112.97
2019-02-25T22:29:34.872Z,107.13
2019-02-25T22:32:06.492Z,103.70
2019-02-25T22:34:37.935Z,105.33
2019-02-25T22:37:12.397Z,102.80
2019-02-25T22:39:40.993Z,103.50
2019-02-25T22:42:12.188Z,99.40
2019-02-25T22:44:45.154Z,104.80
2019-02-25T22:47:17.816Z,101.82
2019-02-25T22:49:47.855Z,96.67
2019-02-25T22:52:21.840Z,92.95
2019-02-25T22:54:52.139Z,100.47
2019-02-25T22:57:23.631Z,102.67
2019-02-25T22:59:55.288Z,97.13
2019-02-25T23:02:28.049Z,95.67
2019-02-25T23:04:59.780Z,86.63
2019-02-25T23:07:30.374Z,89.27
2019-02-25T23:10:01.174Z,95.20
2019-02-25T23:12:31.897Z,93.00
2019-02-25T23:15:03.849Z,96.13
2019-02-25T23:17:37.574Z,92.97
2019-02-25T23:20:09.523Z,97.07
2019-02-25T23:22:39.920Z,97.67
2019-02-25T23:25:11.567Z,93.97
2019-02-25T23:27:42.085Z,99.20
2019-02-25T23:30:13.778Z,96.65
2019-02-25T23:32:44.408Z,94.70
2019-02-25T23:35:16.471Z,93.42
2019-02-25T23:37:51.045Z,97.17
2019-02-25T23:40:19.748Z,102.50
2019-02-25T23:42:51.288Z,93.20
2019-02-25T23:45:23.171Z,91.30
2019-02-25T23:47:57.612Z,89.37
2019-02-25T23:50:27.947Z,88.77
2019-02-25T23:52:57.982Z,89.28
2019-02-25T23:55:29.662Z,90.20
2019-02-25T23:58:00.207Z,91.47
